Time;durP1;ratioP1;P1;durP2;ratioP2;P2;SDS_P1;SDS_P2;PMS_P1;PMS_P2;Temp;Humidity;BMP_temperature;BMP_pressure;BME280_temperature;BME280_humidity;BME280_pressure;Samples;Min_cycle;Max_cycle;Signal;HPM_P1;HPM_P2
2023/06/15 00:02:13;;;;;;;138.10;132.07;;;;;;;30.48;22.89;101703.84;5013642;28;20055;-71
2023/06/15 00:04:41;;;;;;;141.30;135.23;;;;;;;30.46;22.82;101711.75;5013554;28;20085;-71
2023/06/15 00:07:07;;;;;;;134.90;129.00;;;;;;;30.42;22.61;101708.88;5012390;28;20153;-71
2023/06/15 00:09:33;;;;;;;138.30;132.20;;;;;;;30.38;22.91;101711.56;5013712;28;20474;-71
2023/06/15 00:11:58;;;;;;;136.13;130.30;;;;;;;30.35;22.57;101712.25;5013401;28;20034;-71
2023/06/15 00:14:24;;;;;;;137.90;131.88;;;;;;;30.31;22.76;101707.75;5013637;28;20030;-71
2023/06/15 00:16:52;;;;;;;136.43;130.35;;;;;;;30.28;22.87;101702.88;5011841;28;20034;-71
2023/06/15 00:19:19;;;;;;;135.07;129.15;;;;;;;30.25;22.99;101706.41;5013285;28;20033;-71
2023/06/15 00:21:48;;;;;;;136.82;130.77;;;;;;;30.19;22.89;101706.63;5013293;28;20053;-71
2023/06/15 00:24:14;;;;;;;137.73;131.68;;;;;;;30.16;22.85;101710.13;5012569;28;20046;-71
2023/06/15 00:26:40;;;;;;;135.32;129.38;;;;;;;30.14;23.05;101714.41;5013454;28;20041;-72
2023/06/15 00:29:05;;;;;;;140.30;134.27;;;;;;;30.10;23.03;101702.34;5012769;28;20025;-71
2023/06/15 00:31:31;;;;;;;139.38;133.32;;;;;;;30.06;23.15;101715.34;5013412;28;20030;-70
2023/06/15 00:33:56;;;;;;;137.02;131.07;;;;;;;30.04;23.10;101712.09;5013561;28;20084;-71
2023/06/15 00:36:22;;;;;;;133.60;127.85;;;;;;;29.99;22.97;101710.41;5012210;28;20034;-71
2023/06/15 00:38:47;;;;;;;132.68;126.68;;;;;;;29.96;22.98;101716.66;5012695;28;20088;-71
2023/06/15 00:41:13;;;;;;;131.98;125.78;;;;;;;29.91;23.29;101714.94;5027297;28;20062;-71
2023/06/15 00:43:38;;;;;;;131.18;125.53;;;;;;;29.89;23.32;101717.25;5013197;28;20058;-71
2023/06/15 00:46:04;;;;;;;135.40;129.35;;;;;;;29.85;23.29;101715.53;5011622;28;20034;-70
2023/06/15 00:48:31;;;;;;;130.90;125.25;;;;;;;29.80;23.15;101711.00;5028118;28;20030;-71
2023/06/15 00:50:56;;;;;;;133.25;127.45;;;;;;;29.79;23.44;101719.69;5012187;28;20030;-71
2023/06/15 00:53:23;;;;;;;131.07;124.32;;;;;;;29.75;23.39;101717.63;5012900;28;20470;-71
2023/06/15 00:55:49;;;;;;;126.47;120.90;;;;;;;29.71;23.43;101725.06;5011165;28;20034;-71
2023/06/15 00:58:17;;;;;;;131.15;125.45;;;;;;;29.67;23.44;101718.56;5013612;28;20398;-71
2023/06/15 01:00:48;;;;;;;132.48;126.78;;;;;;;29.64;23.66;101719.22;5012224;28;20037;-70
2023/06/15 01:03:20;;;;;;;132.10;126.10;;;;;;;29.60;23.42;101715.50;4993561;28;20038;-70
2023/06/15 01:05:47;;;;;;;129.07;123.47;;;;;;;29.58;23.40;101722.59;4993462;28;20104;-70
2023/06/15 01:08:15;;;;;;;125.82;120.32;;;;;;;29.54;23.45;101705.78;4991645;28;20105;-71
2023/06/15 01:10:42;;;;;;;127.57;122.03;;;;;;;29.51;23.74;101717.63;4993058;28;20030;-71
2023/06/15 01:13:12;;;;;;;128.80;123.15;;;;;;;29.47;23.66;101711.13;4992640;28;20446;-71
2023/06/15 01:15:39;;;;;;;129.35;123.78;;;;;;;29.44;23.85;101714.63;4993383;28;20125;-71
2023/06/15 01:18:04;;;;;;;127.05;121.25;;;;;;;29.41;23.65;101706.94;4992772;28;20027;-71
2023/06/15 01:20:39;;;;;;;128.30;122.25;;;;;;;29.37;23.67;101714.38;4993252;28;20026;-70
2023/06/15 01:23:36;;;;;;;127.93;121.68;;;;;;;29.33;23.91;101717.03;4992693;28;20030;-71
2023/06/15 01:26:06;;;;;;;128.88;123.28;;;;;;;29.28;24.09;101711.69;4992471;28;20547;-71
2023/06/15 01:28:34;;;;;;;131.23;125.25;;;;;;;29.25;23.89;101721.53;5008172;28;20034;-71
2023/06/15 01:31:00;;;;;;;;;;;;;;;29.22;23.84;101719.47;4992802;28;20030;-71
2023/06/15 01:33:25;;;;;;;124.10;118.60;;;;;;;29.19;24.22;101722.13;4992822;28;20358;-71
2023/06/15 01:35:51;;;;;;;127.55;122.05;;;;;;;29.15;24.25;101716.44;4992475;28;20546;-70
2023/06/15 01:38:20;;;;;;;127.90;122.35;;;;;;;29.11;24.15;101724.66;4992659;28;20034;-71
2023/06/15 01:40:49;;;;;;;125.25;119.65;;;;;;;29.08;24.01;101713.41;4992415;28;20034;-70
2023/06/15 01:43:28;;;;;;;124.47;118.97;;;;;;;29.05;24.56;101723.25;4992518;28;20069;-71
2023/06/15 01:45:55;;;;;;;124.00;118.60;;;;;;;29.01;24.11;101718.72;4993521;28;20042;-71
2023/06/15 01:48:21;;;;;;;125.45;120.05;;;;;;;28.98;24.44;101723.00;4992709;28;20038;-71
2023/06/15 01:50:49;;;;;;;124.25;118.82;;;;;;;28.95;24.24;101720.88;4992623;28;20034;-71
2023/06/15 01:53:14;;;;;;;;;;;;;;;28.92;23.83;101727.94;4992440;28;20045;-70
2023/06/15 01:55:40;;;;;;;123.18;117.68;;;;;;;28.87;24.13;101722.59;4992839;28;19918;-71
2023/06/15 01:58:06;;;;;;;122.60;117.03;;;;;;;28.84;24.50;101728.06;4991888;28;20066;-71
2023/06/15 02:00:31;;;;;;;120.35;114.95;;;;;;;28.81;24.38;101737.91;4991636;28;20034;-70
2023/06/15 02:02:57;;;;;;;120.30;115.07;;;;;;;28.79;24.49;101726.31;4992168;28;20422;-71
2023/06/15 02:05:22;;;;;;;125.38;119.95;;;;;;;28.75;24.40;101722.56;4992166;28;20031;-71
2023/06/15 02:07:48;;;;;;;125.47;119.57;;;;;;;28.72;24.43;101723.25;4992318;28;20034;-72
2023/06/15 02:10:13;;;;;;;124.30;118.90;;;;;;;28.69;24.86;101723.97;4991860;28;20050;-72
2023/06/15 02:12:39;;;;;;;125.88;120.30;;;;;;;28.66;24.32;101730.22;4992421;28;20042;-72
2023/06/15 02:15:05;;;;;;;124.82;119.13;;;;;;;28.63;24.67;101733.69;5006848;28;20112;-72
2023/06/15 02:17:38;;;;;;;123.70;118.22;;;;;;;28.60;24.39;101726.84;4993312;28;20042;-72
2023/06/15 02:20:08;;;;;;;124.50;118.95;;;;;;;28.55;24.71;101727.06;4991964;28;20076;-71
2023/06/15 02:22:33;;;;;;;121.03;115.78;;;;;;;28.53;24.67;101737.69;4992468;28;20089;-71
2023/06/15 02:24:59;;;;;;;121.93;116.55;;;;;;;28.50;24.64;101730.03;4991870;28;20038;-72
2023/06/15 02:27:24;;;;;;;122.50;117.00;;;;;;;28.47;24.69;101733.47;4992319;28;20052;-72
2023/06/15 02:29:50;;;;;;;124.50;118.70;;;;;;;28.43;24.67;101735.31;4992206;28;20030;-72
2023/06/15 02:32:36;;;;;;;121.72;116.43;;;;;;;28.40;25.01;101738.75;4992187;28;20414;-72
2023/06/15 02:35:06;;;;;;;120.90;115.10;;;;;;;28.36;24.83;101737.81;4992115;28;20439;-71
2023/06/15 02:37:32;;;;;;;120.35;114.85;;;;;;;28.33;24.67;101738.50;4974773;28;20037;-71
2023/06/15 02:39:58;;;;;;;121.57;115.78;;;;;;;28.30;25.25;101748.31;4991911;28;20403;-71
2023/06/15 02:42:23;;;;;;;121.50;116.22;;;;;;;28.27;24.94;101748.97;4992533;28;20150;-71
2023/06/15 02:44:49;;;;;;;118.95;113.72;;;;;;;28.25;25.07;101748.53;4992485;28;20030;-71
2023/06/15 02:47:15;;;;;;;122.43;117.03;;;;;;;28.21;24.88;101739.25;4990752;28;20046;-71
2023/06/15 02:49:40;;;;;;;118.95;113.32;;;;;;;28.19;24.91;101747.09;4992277;28;20031;-71
2023/06/15 02:52:06;;;;;;;119.75;114.15;;;;;;;28.15;24.96;101746.97;4991620;28;20387;-71
2023/06/15 02:54:31;;;;;;;118.85;113.45;;;;;;;28.12;25.09;101742.06;5008925;28;20121;-71
2023/06/15 02:56:57;;;;;;;120.13;114.85;;;;;;;28.10;24.94;101749.13;5010958;28;20490;-71
2023/06/15 02:59:25;;;;;;;118.10;112.95;;;;;;;28.05;24.97;101744.59;5025909;28;20096;-71
2023/06/15 03:01:52;;;;;;;120.03;114.83;;;;;;;28.02;25.42;101740.53;5011186;28;20030;-70
2023/06/15 03:04:21;;;;;;;120.60;115.25;;;;;;;27.99;25.08;101743.16;5010913;28;20109;-71
2023/06/15 03:06:50;;;;;;;123.80;118.30;;;;;;;27.96;25.52;101755.75;5026195;28;20103;-71
2023/06/15 03:09:22;;;;;;;116.18;110.88;;;;;;;27.94;25.32;101748.91;5009518;28;20026;-71
2023/06/15 03:11:50;;;;;;;116.95;111.80;;;;;;;27.91;25.58;101744.03;5010908;28;20034;-70
2023/06/15 03:14:18;;;;;;;115.90;110.80;;;;;;;27.87;25.39;101746.69;5010746;28;20759;-71
2023/06/15 03:16:46;;;;;;;121.97;116.47;;;;;;;27.85;25.35;101748.16;5009764;28;20034;-70
2023/06/15 03:19:15;;;;;;;115.70;110.45;;;;;;;27.82;25.89;101749.63;5012580;28;20113;-71
2023/06/15 03:21:46;;;;;;;116.07;110.43;;;;;;;27.78;25.82;101757.78;5014569;28;20128;-70
2023/06/15 03:24:13;;;;;;;116.57;111.32;;;;;;;27.75;25.75;101750.13;5004392;28;20037;-71
2023/06/15 03:26:41;;;;;;;114.82;109.43;;;;;;;27.72;25.66;101753.59;5010313;28;20038;-71
2023/06/15 03:29:07;;;;;;;120.15;114.35;;;;;;;27.70;26.01;101749.53;5013919;28;20045;-71
2023/06/15 03:31:33;;;;;;;112.97;107.68;;;;;;;27.67;25.91;101756.56;5014320;28;20061;-70
2023/06/15 03:34:00;;;;;;;119.47;114.07;;;;;;;27.63;25.65;101753.63;5014031;28;20032;-71
2023/06/15 03:36:29;;;;;;;118.60;113.30;;;;;;;27.60;26.03;101756.25;5013472;28;20581;-70
2023/06/15 03:38:56;;;;;;;115.63;110.50;;;;;;;27.58;26.07;101751.03;5012695;28;20137;-70
2023/06/15 03:41:22;;;;;;;116.32;110.78;;;;;;;27.55;25.94;101751.72;5013464;28;20053;-71
2023/06/15 03:43:47;;;;;;;111.25;106.00;;;;;;;27.52;25.74;101757.13;5014235;28;20038;-70
2023/06/15 03:46:13;;;;;;;110.05;105.05;;;;;;;27.50;25.74;101757.44;5012659;28;20045;-71
2023/06/15 03:48:38;;;;;;;114.22;108.75;;;;;;;27.46;25.85;101755.66;5014742;28;20113;-71
2023/06/15 03:51:04;;;;;;;107.65;102.65;;;;;;;27.43;25.98;101757.16;5013551;28;20514;-71
2023/06/15 03:53:29;;;;;;;112.13;106.90;;;;;;;27.40;26.32;101760.59;5014575;28;20034;-71
2023/06/15 03:55:56;;;;;;;112.63;107.53;;;;;;;27.37;26.09;101759.31;5012783;28;20505;-71
2023/06/15 03:58:21;;;;;;;112.47;107.35;;;;;;;27.34;25.84;101762.75;5012339;28;20122;-70
2023/06/15 04:00:47;;;;;;;112.05;106.88;;;;;;;27.31;26.18;101757.84;5013989;28;20117;-70
2023/06/15 04:03:13;;;;;;;108.53;103.45;;;;;;;27.28;26.30;101758.50;5027789;28;20030;-71
2023/06/15 04:05:39;;;;;;;109.32;104.32;;;;;;;27.26;26.01;101762.75;5013984;28;20068;-70
2023/06/15 04:08:05;;;;;;;110.63;105.47;;;;;;;27.23;26.34;101763.44;5013675;28;20041;-69
2023/06/15 04:10:30;;;;;;;111.20;106.13;;;;;;;27.19;26.34;101763.28;5013674;28;20029;-70
2023/06/15 04:12:55;;;;;;;108.78;103.90;;;;;;;27.17;26.70;101768.31;5012561;28;20041;-69
2023/06/15 04:15:21;;;;;;;112.78;107.18;;;;;;;27.13;26.18;101770.91;5028510;28;20045;-69
2023/06/15 04:17:48;;;;;;;109.82;104.88;;;;;;;27.11;26.33;101770.44;5027887;28;20038;-69
2023/06/15 04:20:14;;;;;;;114.97;109.45;;;;;;;27.09;26.60;101766.38;5028321;28;20466;-69
2023/06/15 04:22:39;;;;;;;111.72;106.32;;;;;;;27.06;26.77;101778.94;5013505;28;20080;-69
2023/06/15 04:25:06;;;;;;;113.97;108.60;;;;;;;27.04;26.51;101777.63;5013078;28;20172;-69
2023/06/15 04:27:34;;;;;;;110.85;105.78;;;;;;;27.01;26.98;101786.63;5012114;28;20045;-70
2023/06/15 04:30:02;;;;;;;112.53;107.03;;;;;;;26.98;26.50;101779.78;5011899;28;20026;-71
2023/06/15 04:32:30;;;;;;;107.35;102.32;;;;;;;26.95;27.06;101780.44;5012770;28;20044;-71
2023/06/15 04:34:56;;;;;;;107.88;102.63;;;;;;;26.94;27.11;101778.81;5027279;28;20056;-69
2023/06/15 04:37:23;;;;;;;111.18;105.85;;;;;;;26.90;27.14;101781.41;5012669;28;20030;-69
2023/06/15 04:39:49;;;;;;;109.68;104.65;;;;;;;26.88;26.78;101785.66;5012551;28;20172;-70
2023/06/15 04:42:17;;;;;;;109.57;104.63;;;;;;;26.86;26.97;101783.22;5011912;28;20045;-70
2023/06/15 04:44:43;;;;;;;108.90;103.90;;;;;;;26.84;27.25;101793.00;5013032;28;20030;-70
2023/06/15 04:47:08;;;;;;;108.15;103.22;;;;;;;26.81;27.23;101793.66;5028170;28;20521;-70
2023/06/15 04:49:34;;;;;;;110.60;105.50;;;;;;;26.78;26.93;101797.91;5012616;28;20467;-70
2023/06/15 04:51:59;;;;;;;109.93;104.53;;;;;;;26.75;27.04;101799.38;5011661;28;20065;-69
2023/06/15 04:54:25;;;;;;;110.32;104.72;;;;;;;26.72;27.47;101796.44;5011964;28;20394;-69
2023/06/15 04:56:50;;;;;;;109.13;104.22;;;;;;;26.71;27.26;101792.03;5012686;28;20045;-69
2023/06/15 04:59:16;;;;;;;110.85;105.78;;;;;;;26.68;27.16;101801.81;5012040;28;20092;-69
2023/06/15 05:01:41;;;;;;;110.75;105.05;;;;;;;26.67;27.20;101796.63;5027739;28;20041;-70
2023/06/15 05:04:07;;;;;;;109.63;104.43;;;;;;;26.63;27.59;101796.44;5011454;28;20034;-69
2023/06/15 05:06:33;;;;;;;109.47;103.63;;;;;;;26.61;27.23;101807.06;5012104;28;20470;-69
2023/06/15 05:08:59;;;;;;;109.93;104.97;;;;;;;26.60;27.32;101799.88;5012456;28;20084;-70
2023/06/15 05:11:24;;;;;;;107.72;102.63;;;;;;;26.57;27.53;101800.53;5011439;28;20030;-69
2023/06/15 05:13:50;;;;;;;105.15;100.15;;;;;;;26.56;27.60;101804.44;5012373;28;20056;-69
2023/06/15 05:16:15;;;;;;;108.32;102.95;;;;;;;26.54;27.40;101803.94;5011087;28;20066;-69
2023/06/15 05:18:41;;;;;;;106.22;101.22;;;;;;;26.51;27.68;101805.38;5012417;28;20475;-69
2023/06/15 05:21:07;;;;;;;109.00;103.40;;;;;;;26.50;28.00;101805.69;5012024;28;20541;-69
2023/06/15 05:23:33;;;;;;;107.90;102.65;;;;;;;26.48;27.67;101802.44;5010628;28;20092;-69
2023/06/15 05:25:59;;;;;;;106.68;101.38;;;;;;;26.46;27.99;101805.56;5011849;28;20398;-69
2023/06/15 05:28:24;;;;;;;112.25;106.93;;;;;;;26.45;28.13;101811.41;5010924;28;20095;-69
2023/06/15 05:30:50;;;;;;;107.50;102.38;;;;;;;26.42;27.96;101804.56;5012035;28;20034;-69
2023/06/15 05:33:15;;;;;;;107.03;101.57;;;;;;;26.42;28.34;101817.59;5010850;28;20065;-69
2023/06/15 05:35:41;;;;;;;107.78;102.80;;;;;;;26.40;28.17;101814.34;5027188;28;20038;-69
2023/06/15 05:38:06;;;;;;;106.82;101.88;;;;;;;26.39;28.26;101821.03;4999455;28;20042;-69
2023/06/15 05:40:32;;;;;;;106.80;101.70;;;;;;;26.37;28.08;101804.72;4992037;28;20027;-69
2023/06/15 05:42:57;;;;;;;105.32;100.30;;;;;;;26.36;28.24;101811.41;4992550;28;20513;-69
2023/06/15 05:45:24;;;;;;;108.30;103.18;;;;;;;26.35;28.17;101818.06;4992357;28;20034;-69
2023/06/15 05:47:50;;;;;;;106.80;101.93;;;;;;;26.34;28.41;101814.50;4992675;28;20557;-69
2023/06/15 05:50:15;;;;;;;106.65;101.25;;;;;;;26.33;28.43;101815.66;4992849;28;20042;-69
2023/06/15 05:52:41;;;;;;;106.55;101.15;;;;;;;26.32;28.56;101816.75;4992278;28;20065;-69
2023/06/15 05:55:07;;;;;;;105.60;100.50;;;;;;;26.32;28.56;101815.97;4992681;28;20030;-69
2023/06/15 05:57:33;;;;;;;106.85;101.65;;;;;;;26.31;28.99;101812.38;4990756;28;20124;-69
2023/06/15 05:59:59;;;;;;;108.20;102.70;;;;;;;26.31;29.13;101822.66;5007395;28;20034;-69
2023/06/15 06:02:24;;;;;;;107.70;102.60;;;;;;;26.31;29.15;101819.88;4991976;28;20041;-69
2023/06/15 06:04:49;;;;;;;105.75;100.32;;;;;;;26.30;29.29;101819.03;4991975;28;20124;-69
2023/06/15 06:07:15;;;;;;;107.13;102.13;;;;;;;26.29;29.12;101820.19;4992579;28;20498;-69
2023/06/15 06:09:40;;;;;;;104.13;99.00;;;;;;;26.29;28.75;101816.63;4991820;28;20052;-69
2023/06/15 06:12:07;;;;;;;106.90;101.05;;;;;;;26.28;28.99;101818.56;4992287;28;20038;-69
2023/06/15 06:14:32;;;;;;;107.18;102.03;;;;;;;26.29;29.48;101820.19;4991591;28;20041;-68
2023/06/15 06:16:58;;;;;;;106.32;101.32;;;;;;;26.30;29.32;101821.00;4990782;28;20394;-70
2023/06/15 06:19:23;;;;;;;108.07;102.78;;;;;;;26.31;29.07;101817.09;4991722;28;20035;-69
2023/06/15 06:21:49;;;;;;;106.68;101.75;;;;;;;26.32;28.80;101811.22;4992045;28;20031;-70
2023/06/15 06:24:15;;;;;;;104.28;99.28;;;;;;;26.33;29.32;101812.03;4992275;28;20551;-70
2023/06/15 06:26:40;;;;;;;106.13;100.68;;;;;;;26.33;29.25;101806.50;4992483;28;20042;-70
2023/06/15 06:29:06;;;;;;;107.68;102.57;;;;;;;26.34;29.88;101814.50;4990901;28;20546;-70
2023/06/15 06:31:31;;;;;;;106.30;101.22;;;;;;;26.34;29.66;101817.25;4991773;28;20077;-70
2023/06/15 06:33:57;;;;;;;108.18;102.68;;;;;;;26.34;29.49;101819.22;4991921;28;20097;-70
2023/06/15 06:36:22;;;;;;;107.50;102.45;;;;;;;26.36;29.78;101816.13;4991888;28;20475;-71
2023/06/15 06:38:48;;;;;;;107.78;102.63;;;;;;;26.36;29.31;101811.41;4995234;28;20033;-70
2023/06/15 06:41:14;;;;;;;107.32;102.13;;;;;;;26.38;29.75;101817.41;5010349;28;20108;-69
2023/06/15 06:43:39;;;;;;;110.75;105.60;;;;;;;26.39;29.25;101819.06;5010570;28;20041;-70
2023/06/15 06:46:05;;;;;;;113.00;106.07;;;;;;;26.42;29.99;101817.59;5026409;28;20437;-70
2023/06/15 06:48:30;;;;;;;112.07;106.57;;;;;;;26.43;29.72;101822.00;5010790;28;20080;-70
2023/06/15 06:50:56;;;;;;;104.88;99.90;;;;;;;26.43;29.69;101822.81;5011189;28;20099;-70
2023/06/15 06:53:21;;;;;;;110.82;105.53;;;;;;;26.44;29.97;101813.38;5009674;28;20091;-70
2023/06/15 06:55:48;;;;;;;108.25;102.95;;;;;;;26.46;30.41;101815.78;5015142;28;20088;-70
2023/06/15 06:58:13;;;;;;;108.82;103.78;;;;;;;26.47;29.93;101818.25;5013396;28;20034;-70
2023/06/15 07:00:39;;;;;;;106.00;100.72;;;;;;;26.50;30.04;101825.09;5014455;28;20033;-70
2023/06/15 07:03:04;;;;;;;105.90;100.72;;;;;;;26.53;30.09;101818.94;5014882;28;20092;-70
2023/06/15 07:05:30;;;;;;;108.63;103.22;;;;;;;26.54;29.81;101818.63;5013559;28;20037;-70
2023/06/15 07:07:56;;;;;;;105.78;100.68;;;;;;;26.58;30.02;101821.53;5029984;28;20288;-70
2023/06/15 07:10:21;;;;;;;109.40;103.85;;;;;;;26.60;30.02;101824.00;5029542;28;20034;-70
2023/06/15 07:12:47;;;;;;;107.28;102.18;;;;;;;26.63;29.72;101815.84;5014440;28;20474;-70
2023/06/15 07:15:13;;;;;;;108.65;103.10;;;;;;;26.67;29.94;101824.31;5013446;28;20041;-70
2023/06/15 07:17:38;;;;;;;108.03;102.40;;;;;;;26.70;29.78;101815.34;5029289;28;20080;-70
2023/06/15 07:20:05;;;;;;;106.95;102.13;;;;;;;26.74;29.80;101821.88;5014553;28;20474;-70
2023/06/15 07:22:30;;;;;;;103.93;99.03;;;;;;;26.76;30.20;101825.97;5012971;28;20176;-70
2023/06/15 07:24:56;;;;;;;107.25;102.10;;;;;;;26.80;29.57;101820.56;5014501;28;20121;-70
2023/06/15 07:27:21;;;;;;;106.68;101.63;;;;;;;26.83;29.50;101821.88;5014466;28;20394;-70
2023/06/15 07:29:47;;;;;;;105.38;100.45;;;;;;;26.88;29.47;101821.69;5013246;28;20489;-70
2023/06/15 07:32:13;;;;;;;111.05;105.65;;;;;;;26.91;29.38;101826.59;5014204;28;20504;-70
2023/06/15 07:34:39;;;;;;;111.60;106.28;;;;;;;26.93;29.75;101819.56;5013869;28;20475;-70
2023/06/15 07:37:06;;;;;;;109.60;104.57;;;;;;;26.98;29.55;101827.72;5014216;28;20026;-71
2023/06/15 07:39:31;;;;;;;109.57;104.38;;;;;;;27.02;29.60;101827.88;5012551;28;20042;-70
2023/06/15 07:41:57;;;;;;;106.07;101.07;;;;;;;27.08;29.63;101828.53;5014221;28;20057;-70
2023/06/15 07:44:22;;;;;;;109.95;104.68;;;;;;;27.12;29.42;101826.75;5013501;28;20034;-69
2023/06/15 07:46:48;;;;;;;108.22;103.43;;;;;;;27.16;29.36;101824.91;5013623;28;20536;-70
2023/06/15 07:49:14;;;;;;;109.47;104.38;;;;;;;27.21;29.38;101829.50;5014112;28;20030;-70
2023/06/15 07:51:40;;;;;;;111.57;105.90;;;;;;;27.25;29.07;101825.75;5013749;28;20037;-70
2023/06/15 07:54:06;;;;;;;109.20;104.20;;;;;;;27.31;29.55;101832.75;5013807;28;20060;-70
2023/06/15 07:56:31;;;;;;;113.50;108.10;;;;;;;27.35;29.22;101830.13;5013294;28;20065;-70
2023/06/15 07:58:57;;;;;;;109.78;104.78;;;;;;;27.41;28.91;101834.34;5012813;28;20442;-70
2023/06/15 08:01:22;;;;;;;111.72;106.55;;;;;;;27.46;29.15;101834.16;5013910;28;20034;-70
2023/06/15 08:03:48;;;;;;;110.70;105.78;;;;;;;27.52;29.38;101837.59;5013397;28;20116;-70
2023/06/15 08:06:13;;;;;;;113.57;107.28;;;;;;;27.57;29.26;101835.47;5011728;28;20081;-70
2023/06/15 08:08:38;;;;;;;112.97;107.30;;;;;;;27.63;29.15;101833.31;5012868;28;20107;-70
2023/06/15 08:11:07;;;;;;;114.80;109.47;;;;;;;27.70;28.83;101835.56;5013688;28;20069;-70
2023/06/15 08:13:32;;;;;;;111.93;106.80;;;;;;;27.74;29.15;101831.78;5013032;28;20038;-71
2023/06/15 08:15:58;;;;;;;113.55;108.25;;;;;;;27.82;28.72;101838.47;5013388;28;20038;-71
2023/06/15 08:18:25;;;;;;;112.97;107.90;;;;;;;27.88;29.03;101833.56;5012876;28;20479;-71
2023/06/15 08:20:51;;;;;;;113.03;107.72;;;;;;;27.94;28.96;101837.75;5012884;28;20403;-70
2023/06/15 08:23:17;;;;;;;118.95;113.45;;;;;;;28.00;28.69;101845.59;5012738;28;20471;-71
2023/06/15 08:25:42;;;;;;;118.60;113.15;;;;;;;28.07;28.79;101841.44;5028345;28;20046;-71
2023/06/15 08:28:08;;;;;;;120.55;114.97;;;;;;;28.14;28.64;101847.28;5012449;28;20029;-71
2023/06/15 08:30:33;;;;;;;118.35;112.93;;;;;;;28.20;28.75;101843.19;5029005;28;20034;-72
2023/06/15 08:32:59;;;;;;;117.43;111.88;;;;;;;28.27;28.60;101840.66;5027792;28;20033;-71
2023/06/15 08:35:24;;;;;;;118.15;113.00;;;;;;;28.35;28.35;101838.97;5012487;28;20030;-71
2023/06/15 08:37:50;;;;;;;120.25;114.47;;;;;;;28.43;27.99;101832.56;5012339;28;20026;-70
2023/06/15 08:40:16;;;;;;;121.13;115.82;;;;;;;28.50;28.37;101832.88;5013687;28;20675;-70
2023/06/15 08:42:42;;;;;;;120.40;114.90;;;;;;;28.57;27.96;101835.91;5012283;28;20054;-70
2023/06/15 08:45:07;;;;;;;121.15;115.50;;;;;;;28.66;27.92;101838.63;5012388;28;20084;-70
2023/06/15 08:47:36;;;;;;;121.72;115.63;;;;;;;28.73;27.99;101827.78;5027845;28;20057;-70
2023/06/15 08:50:06;;;;;;;125.35;119.25;;;;;;;28.81;27.69;101837.19;5011477;28;20030;-70
2023/06/15 08:52:35;;;;;;;125.90;120.20;;;;;;;28.89;27.53;101839.06;5013599;28;20037;-70
2023/06/15 08:55:02;;;;;;;122.65;116.75;;;;;;;28.96;27.44;101833.78;5012795;28;20034;-70
2023/06/15 08:57:28;;;;;;;123.70;117.57;;;;;;;29.05;27.34;101826.19;5011735;28;20382;-70
2023/06/15 08:59:55;;;;;;;126.95;121.38;;;;;;;29.13;27.17;101827.25;5012624;28;20034;-70
2023/06/15 09:02:22;;;;;;;125.95;119.88;;;;;;;29.21;27.30;101826.34;5012585;28;20068;-70
2023/06/15 09:04:51;;;;;;;128.70;122.82;;;;;;;29.29;27.30;101828.22;5012494;28;20037;-70
2023/06/15 09:07:21;;;;;;;128.13;122.05;;;;;;;29.40;27.26;101830.56;5012410;28;20507;-70
2023/06/15 09:10:18;;;;;;;128.13;122.30;;;;;;;29.49;27.26;101831.28;5012050;28;20120;-70
2023/06/15 09:12:45;;;;;;;132.68;126.85;;;;;;;29.56;26.85;101828.75;5012092;28;20057;-70
2023/06/15 09:15:16;;;;;;;127.72;122.05;;;;;;;29.65;27.14;101828.63;5012242;28;20069;-70
2023/06/15 09:17:41;;;;;;;134.73;128.18;;;;;;;29.73;27.13;101827.72;5011448;28;20139;-70
2023/06/15 09:20:08;;;;;;;131.43;125.53;;;;;;;29.81;26.66;101818.47;5011439;28;20120;-70
2023/06/15 09:22:43;;;;;;;131.00;125.25;;;;;;;29.91;27.20;101819.94;5012348;28;20041;-70
2023/06/15 09:25:16;;;;;;;137.85;131.95;;;;;;;30.00;26.63;101819.84;5011478;28;20108;-70
2023/06/15 09:27:58;;;;;;;132.45;126.05;;;;;;;30.10;26.69;101833.28;5011794;28;20034;-70
2023/06/15 09:30:31;;;;;;;130.63;124.68;;;;;;;30.19;26.21;101820.88;4992837;28;20031;-71
2023/06/15 09:32:57;;;;;;;138.95;130.13;;;;;;;30.27;26.23;101818.34;4992251;28;20422;-70
2023/06/15 09:35:23;;;;;;;137.15;130.32;;;;;;;30.36;26.37;101825.38;4993433;28;20768;-70
2023/06/15 09:37:53;;;;;;;138.05;131.55;;;;;;;30.45;25.69;101822.47;4992475;28;20065;-70
2023/06/15 09:40:19;;;;;;;134.07;128.32;;;;;;;30.54;25.53;101813.94;4993001;28;20036;-71
2023/06/15 09:42:50;;;;;;;142.05;135.65;;;;;;;30.62;25.44;101819.38;4992196;28;20410;-71
2023/06/15 09:45:16;;;;;;;135.55;129.07;;;;;;;30.72;25.56;101820.03;4992611;28;20356;-71
2023/06/15 09:47:41;;;;;;;137.15;130.98;;;;;;;30.80;25.71;101825.47;4992222;28;20117;-71
2023/06/15 09:50:10;;;;;;;137.93;131.93;;;;;;;30.90;25.41;101823.38;4992912;28;20058;-69
2023/06/15 09:52:41;;;;;;;141.07;134.35;;;;;;;30.99;25.12;101824.81;5008621;28;20036;-70
2023/06/15 09:55:08;;;;;;;141.48;134.98;;;;;;;31.10;25.08;101824.31;5011906;28;20118;-70
2023/06/15 09:57:34;;;;;;;139.63;133.43;;;;;;;31.18;25.30;101821.38;5010967;28;20038;-69
2023/06/15 10:00:01;;;;;;;139.77;133.75;;;;;;;31.27;25.29;101821.19;5011312;28;20382;-69
2023/06/15 10:02:27;;;;;;;146.73;138.85;;;;;;;31.36;25.21;101815.44;5011883;28;20034;-70
2023/06/15 10:04:54;;;;;;;142.15;135.95;;;;;;;31.45;24.50;101813.31;5011053;28;20446;-71
2023/06/15 10:07:21;;;;;;;145.43;139.02;;;;;;;31.53;24.51;101815.13;5010297;28;20034;-71
2023/06/15 10:09:48;;;;;;;143.68;136.95;;;;;;;31.63;24.20;101813.78;5011565;28;20168;-71
2023/06/15 10:12:20;;;;;;;143.40;136.90;;;;;;;31.72;24.23;101817.16;5011458;28;20030;-71
2023/06/15 10:15:09;;;;;;;146.55;140.10;;;;;;;31.82;24.46;101815.81;5011119;28;20030;-71
2023/06/15 10:17:37;;;;;;;149.32;143.05;;;;;;;31.90;24.29;101812.84;5007181;28;20041;-71
2023/06/15 10:20:08;;;;;;;146.18;139.82;;;;;;;31.99;23.86;101812.66;4992263;28;20088;-71
2023/06/15 10:22:50;;;;;;;149.07;142.48;;;;;;;32.08;24.30;101818.03;4992480;28;20109;-71
2023/06/15 10:25:16;;;;;;;151.18;144.48;;;;;;;32.18;24.08;101808.28;4992473;28;20037;-71
2023/06/15 10:27:43;;;;;;;157.75;151.13;;;;;;;32.26;24.08;101815.66;4993730;28;20038;-71
2023/06/15 10:30:08;;;;;;;161.82;155.02;;;;;;;32.36;24.12;101817.88;4995977;28;20475;-71
2023/06/15 10:32:44;;;;;;;157.43;150.65;;;;;;;32.46;23.60;101816.50;4996446;28;20062;-71
2023/06/15 10:35:40;;;;;;;154.98;148.38;;;;;;;32.54;23.88;101816.28;4996150;28;20026;-71
2023/06/15 10:38:24;;;;;;;151.55;144.90;;;;;;;32.65;23.66;101815.72;4995712;28;20478;-71
2023/06/15 10:40:51;;;;;;;157.25;150.57;;;;;;;32.74;23.87;101810.69;4995819;28;20030;-72
2023/06/15 10:43:21;;;;;;;153.70;147.13;;;;;;;32.83;23.79;101814.06;4995819;28;20050;-70
2023/06/15 10:45:48;;;;;;;165.07;158.10;;;;;;;32.92;23.71;101817.44;4995542;28;20348;-71
2023/06/15 10:48:27;;;;;;;162.77;155.57;;;;;;;33.01;23.54;101814.41;4994822;28;20463;-70
2023/06/15 10:51:04;;;;;;;160.88;154.07;;;;;;;33.10;23.71;101815.00;4995839;28;20053;-71
2023/06/15 10:53:36;;;;;;;158.30;151.10;;;;;;;33.17;23.48;101817.94;4995849;28;20026;-71
2023/06/15 10:56:11;;;;;;;160.82;153.73;;;;;;;33.27;23.07;101821.31;4995257;28;20304;-71